createdAt,value
2018-04-06T00:00:24.018Z,4.90
2018-04-06T00:02:51.485Z,6.35
2018-04-06T00:05:18.962Z,5.80
2018-04-06T00:07:46.438Z,6.00
2018-04-06T00:10:14.686Z,6.70
2018-04-06T00:12:42.160Z,6.78
2018-04-06T00:15:09.638Z,7.53
2018-04-06T00:17:37.146Z,8.00
2018-04-06T00:20:04.602Z,7.97
2018-04-06T00:22:32.854Z,8.20
2018-04-06T00:25:00.338Z,7.97
2018-04-06T00:27:27.811Z,7.50
2018-04-06T00:29:55.286Z,8.05
2018-04-06T00:32:22.762Z,7.93
2018-04-06T00:34:50.234Z,8.10
2018-04-06T00:37:17.715Z,7.45
2018-04-06T00:39:45.954Z,7.05
2018-04-06T00:42:13.470Z,6.90
2018-04-06T00:44:40.932Z,8.95
2018-04-06T00:47:08.485Z,9.82
2018-04-06T00:49:35.964Z,7.60
2018-04-06T00:52:03.451Z,7.70
2018-04-06T00:54:31.790Z,7.68
2018-04-06T00:56:59.259Z,7.57
2018-04-06T00:59:26.734Z,8.40
2018-04-06T01:01:54.233Z,9.02
2018-04-06T01:04:21.890Z,8.98
2018-04-06T01:06:49.382Z,8.52
2018-04-06T01:09:16.862Z,6.93
2018-04-06T01:11:45.114Z,7.75
2018-04-06T01:14:12.609Z,6.50
2018-04-06T01:16:40.100Z,8.95
2018-04-06T01:19:07.599Z,8.10
2018-04-06T01:21:35.078Z,7.80
2018-04-06T01:24:02.575Z,8.38
2018-04-06T01:26:30.071Z,9.45
2018-04-06T01:28:58.310Z,8.30
2018-04-06T01:31:25.803Z,8.38
2018-04-06T01:33:53.284Z,8.35
2018-04-06T01:36:20.766Z,8.95
2018-04-06T01:38:49.019Z,8.63
2018-04-06T01:41:16.507Z,8.40
2018-04-06T01:43:44.750Z,8.95
2018-04-06T01:46:12.238Z,9.05
2018-04-06T01:48:39.715Z,9.82
2018-04-06T01:51:07.199Z,8.82
2018-04-06T01:53:34.673Z,9.18
2018-04-06T01:56:02.931Z,9.68
2018-04-06T01:58:30.406Z,9.18
2018-04-06T02:00:57.898Z,9.45
2018-04-06T02:03:25.370Z,9.05
2018-04-06T02:05:52.855Z,8.32
2018-04-06T02:08:21.093Z,8.80
2018-04-06T02:10:48.590Z,8.23
2018-04-06T02:13:16.067Z,9.02
2018-04-06T02:15:43.555Z,8.27
2018-04-06T02:18:11.032Z,8.80
2018-04-06T02:20:38.517Z,9.70
2018-04-06T02:23:05.990Z,9.73
2018-04-06T02:25:33.475Z,9.73
2018-04-06T02:28:00.959Z,9.65
2018-04-06T02:30:28.458Z,10.60
2018-04-06T02:32:56.715Z,9.95
2018-04-06T02:35:24.187Z,11.12
2018-04-06T02:37:51.680Z,9.13
2018-04-06T02:40:19.151Z,9.63
2018-04-06T02:42:47.404Z,8.48
2018-04-06T02:45:14.883Z,9.35
2018-04-06T02:47:42.374Z,9.43
2018-04-06T02:50:09.850Z,9.10
2018-04-06T02:52:38.107Z,8.85
2018-04-06T02:55:05.590Z,10.75
2018-04-06T02:57:33.086Z,10.77
2018-04-06T03:00:01.336Z,9.73
2018-04-06T03:02:28.818Z,11.27
2018-04-06T03:04:56.298Z,10.38
2018-04-06T03:07:24.550Z,10.88
2018-04-06T03:09:52.030Z,10.35
2018-04-06T03:12:19.519Z,10.68
2018-04-06T03:14:46.995Z,9.20
2018-04-06T03:17:15.251Z,9.93
2018-04-06T03:19:42.726Z,10.43
2018-04-06T03:22:10.223Z,11.20
2018-04-06T03:24:38.466Z,11.77
2018-04-06T03:27:05.959Z,9.68
2018-04-06T03:29:33.447Z,11.05
2018-04-06T03:32:00.925Z,11.43
2018-04-06T03:34:29.195Z,11.00
2018-04-06T03:36:56.686Z,11.52
2018-04-06T03:39:24.171Z,11.35
2018-04-06T03:41:51.667Z,11.60
2018-04-06T03:44:19.151Z,10.65
2018-04-06T03:46:46.683Z,13.23
2018-04-06T03:49:14.167Z,10.57
2018-04-06T03:51:41.658Z,11.10
2018-04-06T03:54:09.144Z,12.15
2018-04-06T03:56:36.635Z,13.95
2018-04-06T03:59:04.886Z,14.57
2018-04-06T04:01:32.379Z,13.65
2018-04-06T04:03:59.861Z,13.23
2018-04-06T04:06:28.119Z,13.48
2018-04-06T04:08:55.600Z,14.85
2018-04-06T04:11:23.096Z,14.43
2018-04-06T04:13:51.342Z,15.15
2018-04-06T04:16:18.836Z,14.77
2018-04-06T04:18:46.318Z,14.90
2018-04-06T04:21:14.579Z,15.13
2018-04-06T04:23:42.054Z,16.90
2018-04-06T04:26:09.543Z,19.17
2018-04-06T04:28:37.802Z,18.02
2018-04-06T04:31:05.285Z,20.05
2018-04-06T04:33:32.779Z,17.45
2018-04-06T04:36:00.289Z,18.48
2018-04-06T04:38:27.767Z,17.90
2018-04-06T04:40:55.247Z,17.27
2018-04-06T04:43:22.735Z,15.05
2018-04-06T04:45:50.218Z,17.05
2018-04-06T04:48:18.483Z,16.65
2018-04-06T04:50:45.968Z,18.20
2018-04-06T04:53:14.233Z,20.92
2018-04-06T04:55:41.694Z,22.20
2018-04-06T04:58:09.187Z,20.88
2018-04-06T05:00:36.675Z,21.50
2018-04-06T05:03:04.935Z,21.70
2018-04-06T05:05:32.418Z,20.90
2018-04-06T05:08:00.680Z,21.58
2018-04-06T05:10:28.159Z,21.15
2018-04-06T05:12:55.639Z,22.15
2018-04-06T05:15:23.135Z,20.52
2018-04-06T05:17:50.623Z,21.65
2018-04-06T05:20:18.115Z,20.55
2018-04-06T05:22:45.617Z,19.48
2018-04-06T05:25:13.099Z,19.92
2018-04-06T05:27:44.639Z,20.70
2018-04-06T05:30:13.652Z,19.73
2018-04-06T05:32:42.628Z,17.42
2018-04-06T05:35:10.119Z,18.73
2018-04-06T05:37:37.599Z,18.48
2018-04-06T05:40:05.087Z,16.00
2018-04-06T05:42:33.335Z,15.23
2018-04-06T05:45:00.836Z,16.60
2018-04-06T05:47:29.078Z,16.50
2018-04-06T05:49:56.572Z,14.25
2018-04-06T05:52:24.055Z,16.10
2018-04-06T05:54:51.539Z,15.45
2018-04-06T05:57:19.794Z,15.75
2018-04-06T05:59:47.281Z,14.13
2018-04-06T06:02:15.554Z,12.75
2018-04-06T06:04:43.031Z,13.80
2018-04-06T06:07:10.531Z,13.60
2018-04-06T06:09:38.772Z,13.57
2018-04-06T06:12:06.259Z,12.55
2018-04-06T06:14:33.755Z,10.70
2018-04-06T06:17:02.004Z,10.93
2018-04-06T06:19:29.488Z,12.13
2018-04-06T06:21:56.994Z,11.23
2018-04-06T06:24:24.469Z,11.38
2018-04-06T06:26:51.963Z,10.82
2018-04-06T06:29:19.448Z,10.63
2018-04-06T06:31:46.954Z,11.85
2018-04-06T06:34:15.202Z,12.68
2018-04-06T06:36:42.756Z,12.55
2018-04-06T06:39:10.230Z,11.55
2018-04-06T06:41:37.736Z,12.15
2018-04-06T06:44:05.223Z,15.05
2018-04-06T06:46:33.576Z,12.15
2018-04-06T06:49:02.578Z,11.82
2018-04-06T06:51:30.071Z,11.77
2018-04-06T06:53:58.323Z,11.63
2018-04-06T06:56:25.826Z,10.57
2018-04-06T06:58:53.299Z,9.95
2018-04-06T07:01:21.544Z,8.98
2018-04-06T07:03:49.030Z,7.90
2018-04-06T07:06:16.506Z,8.50
2018-04-06T07:08:43.998Z,8.15
2018-04-06T07:11:12.970Z,8.00
2018-04-06T07:13:40.435Z,7.90
2018-04-06T07:16:07.896Z,7.90
2018-04-06T07:18:35.354Z,8.57
2018-04-06T07:21:02.814Z,8.60
2018-04-06T07:23:31.047Z,8.10
2018-04-06T07:25:59.262Z,8.43
2018-04-06T07:28:26.735Z,8.73
2018-04-06T07:30:54.187Z,7.87
2018-04-06T07:33:21.671Z,7.67
2018-04-06T07:35:49.124Z,8.47
2018-04-06T07:38:16.584Z,7.93
2018-04-06T07:40:44.051Z,7.80
2018-04-06T07:43:11.520Z,7.00
2018-04-06T07:45:38.996Z,7.23
2018-04-06T07:48:06.463Z,7.30
2018-04-06T07:50:34.310Z,7.23
2018-04-06T07:53:01.771Z,7.37
2018-04-06T07:55:29.219Z,6.83
2018-04-06T07:57:57.447Z,6.00
2018-04-06T08:00:24.907Z,6.40
2018-04-06T08:02:52.367Z,6.30
2018-04-06T08:05:19.815Z,6.00
2018-04-06T08:07:48.046Z,5.50
2018-04-06T08:10:15.512Z,8.03
2018-04-06T08:12:42.987Z,5.70
2018-04-06T08:15:10.442Z,5.70
2018-04-06T08:17:37.906Z,6.17
2018-04-06T08:20:05.365Z,7.10
2018-04-06T08:22:32.827Z,6.57
2018-04-06T08:25:00.292Z,5.30
2018-04-06T08:27:27.756Z,4.73
2018-04-06T08:29:55.980Z,4.40
2018-04-06T08:32:23.447Z,4.90
2018-04-06T08:34:50.922Z,3.90
2018-04-06T08:37:18.367Z,3.47
2018-04-06T08:39:45.830Z,3.93
2018-04-06T08:42:14.046Z,3.70
2018-04-06T08:44:41.640Z,3.97
2018-04-06T08:47:09.094Z,4.10
2018-04-06T08:49:36.570Z,3.60
2018-04-06T08:52:04.039Z,4.17
2018-04-06T08:54:31.517Z,3.60
2018-04-06T08:56:58.994Z,3.60
2018-04-06T08:59:26.448Z,3.90
2018-04-06T09:01:53.907Z,3.90
2018-04-06T09:04:21.367Z,3.87
2018-04-06T09:06:48.820Z,3.70
2018-04-06T09:09:16.290Z,3.60
2018-04-06T09:11:43.747Z,4.10
2018-04-06T09:14:11.208Z,4.17
2018-04-06T09:16:39.431Z,4.03
2018-04-06T09:19:06.890Z,3.70
2018-04-06T09:21:34.346Z,3.93
2018-04-06T09:24:01.835Z,3.70
2018-04-06T09:26:29.291Z,3.93
2018-04-06T09:28:56.751Z,3.93
2018-04-06T09:31:24.207Z,3.80
2018-04-06T09:33:52.435Z,3.13
2018-04-06T09:36:19.883Z,3.23
2018-04-06T09:38:47.340Z,3.40
2018-04-06T09:41:14.788Z,3.03
2018-04-06T09:43:43.011Z,2.60
2018-04-06T09:46:10.485Z,2.83
2018-04-06T09:48:37.932Z,3.20
2018-04-06T09:51:05.382Z,2.90
2018-04-06T09:53:33.607Z,2.67
2018-04-06T09:56:01.064Z,3.20
2018-04-06T09:58:28.522Z,3.07
2018-04-06T10:00:58.772Z,3.17
2018-04-06T10:03:26.250Z,3.23
2018-04-06T10:05:53.699Z,3.20
2018-04-06T10:08:21.168Z,3.37
2018-04-06T10:10:48.693Z,3.30
2018-04-06T10:13:16.843Z,3.53
2018-04-06T10:15:44.286Z,3.13
2018-04-06T10:18:12.522Z,3.10
2018-04-06T10:20:39.970Z,3.30
2018-04-06T10:23:07.431Z,3.57
2018-04-06T10:25:34.915Z,3.40
2018-04-06T10:28:02.393Z,3.43
2018-04-06T10:30:29.832Z,3.27
2018-04-06T10:32:57.295Z,3.00
2018-04-06T10:35:24.752Z,2.77
2018-04-06T10:37:52.975Z,2.50
2018-04-06T10:40:20.427Z,2.83
2018-04-06T10:42:47.887Z,2.70
2018-04-06T10:45:15.339Z,2.77
2018-04-06T10:47:43.565Z,2.97
2018-04-06T10:50:11.039Z,3.00
2018-04-06T10:52:38.509Z,2.57
2018-04-06T10:55:05.960Z,2.77
2018-04-06T10:57:33.428Z,2.90
2018-04-06T11:00:00.876Z,2.90
2018-04-06T11:02:29.103Z,3.00
2018-04-06T11:04:56.546Z,3.47
2018-04-06T11:07:23.999Z,3.17
2018-04-06T11:09:52.227Z,2.70
2018-04-06T11:12:19.675Z,2.50
2018-04-06T11:14:47.147Z,2.57
2018-04-06T11:17:14.591Z,2.57
2018-04-06T11:19:42.046Z,2.80
2018-04-06T11:22:10.272Z,2.20
2018-04-06T11:24:37.739Z,2.70
2018-04-06T11:27:05.191Z,2.60
2018-04-06T11:29:33.414Z,2.60
2018-04-06T11:32:00.864Z,2.70
2018-04-06T11:34:28.323Z,2.63
2018-04-06T11:36:55.796Z,2.23
2018-04-06T11:39:24.006Z,2.50
2018-04-06T11:41:51.463Z,2.13
2018-04-06T11:44:18.927Z,2.47
2018-04-06T11:46:46.384Z,2.40
2018-04-06T11:49:13.843Z,2.47
2018-04-06T11:51:41.291Z,2.50
2018-04-06T11:54:08.768Z,2.50
2018-04-06T11:56:36.218Z,2.57
2018-04-06T11:59:03.678Z,2.40
2018-04-06T12:01:31.123Z,2.30
2018-04-06T12:03:58.692Z,2.20
2018-04-06T12:06:26.144Z,2.67
2018-04-06T12:08:53.618Z,2.70
2018-04-06T12:11:21.079Z,2.20
2018-04-06T12:13:48.564Z,2.33
2018-04-06T12:16:16.012Z,2.33
2018-04-06T12:18:43.473Z,2.50
2018-04-06T12:21:10.922Z,2.30
2018-04-06T12:23:39.674Z,2.17
2018-04-06T12:26:07.138Z,2.40
2018-04-06T12:28:34.599Z,2.20
2018-04-06T12:31:02.058Z,2.20
2018-04-06T12:33:29.523Z,2.27
2018-04-06T12:35:56.972Z,2.20
2018-04-06T12:38:24.442Z,2.70
2018-04-06T12:40:52.663Z,2.00
2018-04-06T12:43:20.123Z,2.70
2018-04-06T12:45:47.577Z,2.20
2018-04-06T12:48:15.809Z,2.40
2018-04-06T12:50:43.270Z,2.33
2018-04-06T12:53:10.719Z,2.03
2018-04-06T12:55:38.204Z,1.97
2018-04-06T12:58:05.655Z,4.80
2018-04-06T13:00:33.120Z,6.80
2018-04-06T13:03:00.635Z,2.23
2018-04-06T13:05:28.795Z,2.30
2018-04-06T13:07:56.279Z,2.00
2018-04-06T13:10:23.747Z,2.70
2018-04-06T13:12:51.195Z,2.07
2018-04-06T13:15:18.651Z,1.90
2018-04-06T13:17:46.107Z,1.90
2018-04-06T13:20:14.339Z,2.10
2018-04-06T13:22:41.787Z,2.30
2018-04-06T13:25:09.247Z,2.57
2018-04-06T13:27:36.695Z,2.43
2018-04-06T13:30:04.931Z,2.20
2018-04-06T13:32:32.383Z,2.47
2018-04-06T13:34:59.848Z,1.90
2018-04-06T13:37:27.296Z,2.20
2018-04-06T13:39:55.531Z,2.73
2018-04-06T13:42:23.066Z,2.50
2018-04-06T13:44:51.287Z,2.40
2018-04-06T13:47:18.739Z,2.57
2018-04-06T13:49:46.204Z,2.57
2018-04-06T13:52:13.656Z,2.60
2018-04-06T13:54:41.124Z,2.00
2018-04-06T13:57:08.571Z,2.60
2018-04-06T13:59:36.806Z,2.80
2018-04-06T14:02:04.259Z,2.83
2018-04-06T14:04:31.727Z,2.57
2018-04-06T14:06:59.171Z,2.60
2018-04-06T14:09:27.398Z,2.67
2018-04-06T14:11:54.843Z,2.97
2018-04-06T14:14:22.303Z,2.60
2018-04-06T14:16:50.515Z,2.47
2018-04-06T14:19:17.979Z,2.70
2018-04-06T14:21:45.436Z,2.90
2018-04-06T14:24:12.904Z,2.83
2018-04-06T14:26:40.355Z,2.90
2018-04-06T14:29:08.582Z,3.23
2018-04-06T14:31:36.039Z,2.93
2018-04-06T14:34:03.499Z,2.87
2018-04-06T14:36:30.951Z,3.60
2018-04-06T14:38:59.175Z,3.73
2018-04-06T14:41:26.623Z,3.57
2018-04-06T14:43:54.091Z,3.47
2018-04-06T14:46:21.535Z,3.40
2018-04-06T14:48:49.755Z,3.23
2018-04-06T14:51:17.218Z,3.10
2018-04-06T14:53:44.672Z,4.13
2018-04-06T14:56:12.131Z,4.00
2018-04-06T14:58:40.361Z,4.30
2018-04-06T15:01:07.811Z,3.63
2018-04-06T15:03:35.254Z,3.50
2018-04-06T15:06:03.483Z,3.73
2018-04-06T15:08:30.935Z,3.73
2018-04-06T15:10:58.399Z,3.63
2018-04-06T15:13:25.856Z,3.60
2018-04-06T15:15:54.083Z,3.37
2018-04-06T15:18:21.544Z,3.93
2018-04-06T15:20:49.060Z,3.87
2018-04-06T15:23:16.519Z,3.67
2018-04-06T15:25:43.971Z,4.10
2018-04-06T15:28:11.426Z,4.03
2018-04-06T15:30:38.883Z,4.23
2018-04-06T15:33:06.339Z,4.30
2018-04-06T15:35:33.825Z,4.00
2018-04-06T15:38:01.247Z,3.80
2018-04-06T15:40:29.483Z,4.10
2018-04-06T15:42:56.932Z,4.40
2018-04-06T15:45:24.412Z,4.00
2018-04-06T15:47:51.895Z,4.00
2018-04-06T15:50:19.361Z,4.70
2018-04-06T15:52:46.808Z,5.13
2018-04-06T15:55:14.271Z,4.77
2018-04-06T15:57:41.715Z,4.00
2018-04-06T16:00:09.943Z,4.50
2018-04-06T16:02:37.391Z,4.20
2018-04-06T16:05:04.852Z,4.20
2018-04-06T16:07:33.063Z,4.37
2018-04-06T16:10:00.526Z,4.83
2018-04-06T16:12:27.987Z,4.50
2018-04-06T16:14:55.443Z,4.47
2018-04-06T16:17:23.666Z,4.60
2018-04-06T16:19:51.119Z,4.83
2018-04-06T16:22:18.588Z,4.60
2018-04-06T16:24:46.044Z,4.80
2018-04-06T16:27:14.267Z,5.17
2018-04-06T16:29:41.719Z,4.47
2018-04-06T16:32:09.179Z,4.30
2018-04-06T16:34:36.635Z,4.37
2018-04-06T16:37:04.939Z,4.90
2018-04-06T16:39:32.382Z,4.10
2018-04-06T16:42:00.611Z,4.30
2018-04-06T16:44:28.063Z,4.50
2018-04-06T16:46:55.532Z,4.40
2018-04-06T16:49:22.983Z,4.20
2018-04-06T16:51:51.207Z,4.90
2018-04-06T16:54:18.655Z,7.10
2018-04-06T16:56:46.119Z,5.03
2018-04-06T16:59:13.585Z,5.97
2018-04-06T17:01:41.800Z,5.43
2018-04-06T17:04:09.253Z,5.30
2018-04-06T17:06:36.712Z,4.70
2018-04-06T17:09:04.175Z,4.77
2018-04-06T17:11:32.403Z,4.73
2018-04-06T17:13:59.855Z,4.77
2018-04-06T17:16:27.327Z,4.97
2018-04-06T17:18:54.795Z,5.20
2018-04-06T17:21:22.251Z,4.80
2018-04-06T17:23:49.723Z,5.10
2018-04-06T17:26:17.166Z,4.77
2018-04-06T17:28:45.387Z,4.70
2018-04-06T17:31:12.845Z,4.77
2018-04-06T17:33:40.307Z,4.43
2018-04-06T17:36:07.823Z,4.67
2018-04-06T17:38:35.283Z,6.07
2018-04-06T17:41:02.734Z,7.70
2018-04-06T17:43:30.226Z,5.10
2018-04-06T17:45:57.652Z,5.00
2018-04-06T17:48:25.110Z,5.10
2018-04-06T17:50:53.326Z,5.03
2018-04-06T17:53:20.791Z,4.80
2018-04-06T17:55:48.243Z,5.60
2018-04-06T17:58:15.711Z,4.30
2018-04-06T18:00:43.191Z,4.60
2018-04-06T18:03:10.663Z,4.60
2018-04-06T18:05:38.116Z,4.53
2018-04-06T18:08:05.587Z,4.70
2018-04-06T18:10:33.831Z,4.47
2018-04-06T18:13:01.254Z,4.10
2018-04-06T18:15:28.723Z,4.37
2018-04-06T18:17:56.171Z,4.07
2018-04-06T18:20:24.403Z,4.23
2018-04-06T18:22:51.854Z,4.50
2018-04-06T18:25:19.332Z,4.17
2018-04-06T18:27:46.799Z,4.30
2018-04-06T18:30:14.254Z,4.60
2018-04-06T18:32:41.715Z,4.07
2018-04-06T18:35:09.171Z,3.77
2018-04-06T18:37:37.403Z,4.00
2018-04-06T18:40:04.880Z,3.90
2018-04-06T18:42:32.339Z,3.93
2018-04-06T18:44:59.843Z,4.47
2018-04-06T18:47:27.295Z,4.20
2018-04-06T18:49:54.746Z,4.83
2018-04-06T18:52:22.208Z,4.63
2018-04-06T18:54:49.655Z,4.47
2018-04-06T18:57:17.115Z,4.53
2018-04-06T18:59:45.330Z,4.00
2018-04-06T19:02:12.799Z,4.23
2018-04-06T19:04:40.291Z,4.20
2018-04-06T19:07:07.710Z,4.40
2018-04-06T19:09:35.933Z,4.53
2018-04-06T19:12:03.378Z,4.40
2018-04-06T19:14:30.846Z,3.90
2018-04-06T19:16:58.289Z,4.60
2018-04-06T19:19:26.528Z,4.67
2018-04-06T19:21:53.975Z,4.20
2018-04-06T19:24:21.547Z,4.33
2018-04-06T19:26:48.991Z,4.30
2018-04-06T19:29:17.215Z,4.27
2018-04-06T19:31:44.669Z,4.10
2018-04-06T19:34:12.150Z,5.17
2018-04-06T19:36:39.632Z,4.30
2018-04-06T19:39:07.096Z,4.03
2018-04-06T19:44:08.611Z,4.47
2018-04-06T19:46:36.071Z,3.90
2018-04-06T19:49:03.550Z,4.60
2018-04-06T19:51:31.008Z,4.20
2018-04-06T19:53:58.493Z,4.40
2018-04-06T19:56:25.939Z,4.47
2018-04-06T19:58:53.417Z,4.20
2018-04-06T20:01:20.863Z,4.40
2018-04-06T20:03:48.329Z,5.90
2018-04-06T20:06:15.792Z,6.93
2018-04-06T20:08:43.283Z,7.23
2018-04-06T20:11:10.740Z,6.20
2018-04-06T20:13:38.203Z,6.07
2018-04-06T20:16:05.670Z,8.07
2018-04-06T20:18:33.123Z,8.10
2018-04-06T20:21:00.580Z,7.60
2018-04-06T20:23:28.810Z,6.47
2018-04-06T20:25:56.260Z,6.10
2018-04-06T20:28:23.723Z,5.37
2018-04-06T20:30:51.170Z,5.97
2018-04-06T20:33:19.420Z,5.93
2018-04-06T20:35:48.631Z,5.57
2018-04-06T20:38:16.136Z,5.53
2018-04-06T20:40:44.358Z,5.07
2018-04-06T20:43:11.839Z,5.10
2018-04-06T20:45:39.308Z,4.87
2018-04-06T20:48:06.785Z,5.30
2018-04-06T20:50:34.361Z,4.80
2018-04-06T20:53:01.815Z,5.43
2018-04-06T20:55:29.309Z,4.70
2018-04-06T20:57:56.760Z,5.30
2018-04-06T21:00:24.227Z,5.50
2018-04-06T21:02:51.723Z,6.17
2018-04-06T21:05:19.198Z,6.30
2018-04-06T21:07:46.650Z,6.67
2018-04-06T21:10:14.119Z,6.50
2018-04-06T21:12:41.583Z,6.20
2018-04-06T21:15:09.047Z,6.70
2018-04-06T21:17:36.501Z,6.20
2018-04-06T21:20:03.958Z,5.73
2018-04-06T21:22:31.422Z,5.20
2018-04-06T21:24:58.878Z,5.63
2018-04-06T21:27:27.099Z,5.63
2018-04-06T21:29:54.567Z,5.10
2018-04-06T21:32:22.024Z,5.03
2018-04-06T21:34:49.500Z,5.23
2018-04-06T21:37:16.955Z,5.90
2018-04-06T21:39:44.418Z,6.23
2018-04-06T21:42:11.871Z,5.00
2018-04-06T21:44:40.095Z,5.13
2018-04-06T21:47:07.563Z,5.47
2018-04-06T21:49:35.007Z,5.77
2018-04-06T21:52:02.484Z,5.67
2018-04-06T21:54:29.939Z,6.30
2018-04-06T21:56:58.197Z,6.07
2018-04-06T21:59:25.643Z,5.73
2018-04-06T22:01:53.108Z,6.67
2018-04-06T22:04:20.558Z,6.17
2018-04-06T22:06:48.027Z,6.27
2018-04-06T22:09:15.484Z,5.60
2018-04-06T22:11:42.943Z,6.30
2018-04-06T22:14:10.399Z,6.83
2018-04-06T22:16:38.679Z,6.27
2018-04-06T22:19:06.091Z,6.30
2018-04-06T22:21:33.560Z,5.70
2018-04-06T22:24:01.010Z,6.00
2018-04-06T22:26:28.479Z,6.50
2018-04-06T22:28:55.931Z,6.23
2018-04-06T22:31:24.168Z,6.37
2018-04-06T22:33:51.623Z,7.17
2018-04-06T22:36:19.081Z,5.97
2018-04-06T22:38:46.538Z,5.70
2018-04-06T22:41:13.995Z,5.83
2018-04-06T22:43:42.232Z,6.07
2018-04-06T22:46:09.683Z,6.17
2018-04-06T22:48:37.136Z,5.40
2018-04-06T22:51:04.585Z,6.17
2018-04-06T22:53:32.812Z,5.20
2018-04-06T22:56:00.263Z,5.67
2018-04-06T22:58:27.723Z,5.83
2018-04-06T23:00:55.182Z,5.23
2018-04-06T23:03:23.408Z,5.43
2018-04-06T23:05:50.855Z,5.80
2018-04-06T23:08:18.314Z,4.60
2018-04-06T23:10:46.530Z,5.83
2018-04-06T23:13:13.998Z,5.73
2018-04-06T23:15:41.443Z,5.90
2018-04-06T23:18:08.907Z,6.37
2018-04-06T23:20:37.118Z,5.90
2018-04-06T23:23:04.579Z,5.70
2018-04-06T23:25:32.035Z,6.60
2018-04-06T23:27:59.491Z,5.57
2018-04-06T23:30:27.735Z,5.83
2018-04-06T23:32:55.179Z,5.83
2018-04-06T23:35:22.643Z,5.77
2018-04-06T23:37:50.096Z,6.10
2018-04-06T23:40:18.319Z,5.90
2018-04-06T23:42:45.778Z,5.73
2018-04-06T23:45:13.243Z,5.83
2018-04-06T23:47:40.704Z,6.17
2018-04-06T23:50:08.171Z,6.23
2018-04-06T23:52:35.611Z,6.63
2018-04-06T23:55:03.834Z,6.60
2018-04-06T23:57:31.295Z,6.93
2018-04-06T23:59:58.759Z,6.93
